sensor_id;sensor_type;location;lat;lon;timestamp;temperature;humidity
53926;DHT22;39836;52.754;6.866;2022-11-14T00:02:18;6.80;78.60
53926;DHT22;39836;52.754;6.866;2022-11-14T00:04:47;6.80;78.70
53926;DHT22;39836;52.754;6.866;2022-11-14T00:07:14;6.80;78.60
53926;DHT22;39836;52.754;6.866;2022-11-14T00:09:40;6.80;78.60
53926;DHT22;39836;52.754;6.866;2022-11-14T00:12:11;6.80;78.60
53926;DHT22;39836;52.754;6.866;2022-11-14T00:14:37;6.80;78.60
53926;DHT22;39836;52.754;6.866;2022-11-14T00:17:04;6.80;78.60
53926;DHT22;39836;52.754;6.866;2022-11-14T00:19:30;6.70;78.60
53926;DHT22;39836;52.754;6.866;2022-11-14T00:21:56;6.70;78.60
53926;DHT22;39836;52.754;6.866;2022-11-14T00:24:22;6.80;78.60
53926;DHT22;39836;52.754;6.866;2022-11-14T00:26:47;6.70;78.60
53926;DHT22;39836;52.754;6.866;2022-11-14T00:29:14;6.70;78.60
53926;DHT22;39836;52.754;6.866;2022-11-14T00:31:40;6.70;78.70
53926;DHT22;39836;52.754;6.866;2022-11-14T00:34:07;6.80;78.70
53926;DHT22;39836;52.754;6.866;2022-11-14T00:36:33;6.70;78.60
53926;DHT22;39836;52.754;6.866;2022-11-14T00:38:59;6.70;78.60
53926;DHT22;39836;52.754;6.866;2022-11-14T00:41:24;6.70;78.60
53926;DHT22;39836;52.754;6.866;2022-11-14T00:43:50;6.70;78.60
53926;DHT22;39836;52.754;6.866;2022-11-14T00:46:16;6.70;78.70
53926;DHT22;39836;52.754;6.866;2022-11-14T00:48:42;6.70;78.60
53926;DHT22;39836;52.754;6.866;2022-11-14T00:51:07;6.70;78.60
53926;DHT22;39836;52.754;6.866;2022-11-14T00:53:33;6.70;78.50
53926;DHT22;39836;52.754;6.866;2022-11-14T00:55:59;6.70;78.50
53926;DHT22;39836;52.754;6.866;2022-11-14T00:58:25;6.70;78.50
53926;DHT22;39836;52.754;6.866;2022-11-14T01:00:51;6.70;78.50
53926;DHT22;39836;52.754;6.866;2022-11-14T01:03:17;6.70;78.60
53926;DHT22;39836;52.754;6.866;2022-11-14T01:05:45;6.60;78.70
53926;DHT22;39836;52.754;6.866;2022-11-14T01:08:13;6.60;78.50
53926;DHT22;39836;52.754;6.866;2022-11-14T01:10:40;6.50;78.50
53926;DHT22;39836;52.754;6.866;2022-11-14T01:13:06;6.50;78.50
53926;DHT22;39836;52.754;6.866;2022-11-14T01:15:32;6.40;78.50
53926;DHT22;39836;52.754;6.866;2022-11-14T01:17:58;6.30;78.40
53926;DHT22;39836;52.754;6.866;2022-11-14T01:20:24;6.30;78.40
53926;DHT22;39836;52.754;6.866;2022-11-14T01:22:49;6.30;78.40
53926;DHT22;39836;52.754;6.866;2022-11-14T01:25:15;6.20;78.40
53926;DHT22;39836;52.754;6.866;2022-11-14T01:27:41;6.20;78.40
53926;DHT22;39836;52.754;6.866;2022-11-14T01:30:06;6.10;78.40
53926;DHT22;39836;52.754;6.866;2022-11-14T01:32:32;6.10;78.50
53926;DHT22;39836;52.754;6.866;2022-11-14T01:34:58;6.10;78.50
53926;DHT22;39836;52.754;6.866;2022-11-14T01:37:24;6.10;78.60
53926;DHT22;39836;52.754;6.866;2022-11-14T01:39:49;6.10;78.60
53926;DHT22;39836;52.754;6.866;2022-11-14T01:42:15;6.10;78.60
53926;DHT22;39836;52.754;6.866;2022-11-14T01:44:49;6.10;78.70
53926;DHT22;39836;52.754;6.866;2022-11-14T01:47:20;6.10;78.70
53926;DHT22;39836;52.754;6.866;2022-11-14T01:49:52;6.10;78.70
53926;DHT22;39836;52.754;6.866;2022-11-14T01:52:24;6.10;78.70
53926;DHT22;39836;52.754;6.866;2022-11-14T01:54:53;6.10;78.70
53926;DHT22;39836;52.754;6.866;2022-11-14T01:57:44;6.10;78.70
53926;DHT22;39836;52.754;6.866;2022-11-14T02:00:10;6.10;78.80
53926;DHT22;39836;52.754;6.866;2022-11-14T02:02:37;6.10;78.80
53926;DHT22;39836;52.754;6.866;2022-11-14T02:05:06;6.10;78.80
53926;DHT22;39836;52.754;6.866;2022-11-14T02:07:36;6.10;78.80
53926;DHT22;39836;52.754;6.866;2022-11-14T02:10:06;6.10;78.80
53926;DHT22;39836;52.754;6.866;2022-11-14T02:12:32;6.20;78.90
53926;DHT22;39836;52.754;6.866;2022-11-14T02:14:58;6.10;79.00
53926;DHT22;39836;52.754;6.866;2022-11-14T02:17:25;6.20;79.00
53926;DHT22;39836;52.754;6.866;2022-11-14T02:22:40;6.20;78.90
53926;DHT22;39836;52.754;6.866;2022-11-14T02:25:07;6.20;79.00
53926;DHT22;39836;52.754;6.866;2022-11-14T02:27:34;6.20;79.00
53926;DHT22;39836;52.754;6.866;2022-11-14T02:30:13;6.20;79.00
53926;DHT22;39836;52.754;6.866;2022-11-14T02:32:39;6.20;79.00
53926;DHT22;39836;52.754;6.866;2022-11-14T02:35:05;6.20;79.20
53926;DHT22;39836;52.754;6.866;2022-11-14T02:37:31;6.20;79.20
53926;DHT22;39836;52.754;6.866;2022-11-14T02:39:56;6.20;79.10
53926;DHT22;39836;52.754;6.866;2022-11-14T02:42:22;6.20;79.10
53926;DHT22;39836;52.754;6.866;2022-11-14T02:44:48;6.20;79.00
53926;DHT22;39836;52.754;6.866;2022-11-14T02:47:13;6.20;79.00
53926;DHT22;39836;52.754;6.866;2022-11-14T02:49:39;6.20;79.00
53926;DHT22;39836;52.754;6.866;2022-11-14T02:52:05;6.20;79.10
53926;DHT22;39836;52.754;6.866;2022-11-14T02:54:30;6.20;79.00
53926;DHT22;39836;52.754;6.866;2022-11-14T02:56:56;6.20;79.20
53926;DHT22;39836;52.754;6.866;2022-11-14T02:59:21;6.20;79.00
53926;DHT22;39836;52.754;6.866;2022-11-14T03:01:47;6.20;79.10
53926;DHT22;39836;52.754;6.866;2022-11-14T03:04:13;6.20;79.00
53926;DHT22;39836;52.754;6.866;2022-11-14T03:06:39;6.20;79.30
53926;DHT22;39836;52.754;6.866;2022-11-14T03:09:04;6.20;79.20
53926;DHT22;39836;52.754;6.866;2022-11-14T03:11:30;6.20;79.20
53926;DHT22;39836;52.754;6.866;2022-11-14T03:13:56;6.20;79.20
53926;DHT22;39836;52.754;6.866;2022-11-14T03:16:23;6.10;79.30
53926;DHT22;39836;52.754;6.866;2022-11-14T03:18:49;6.20;79.20
53926;DHT22;39836;52.754;6.866;2022-11-14T03:21:17;6.20;79.10
53926;DHT22;39836;52.754;6.866;2022-11-14T03:23:43;6.20;79.20
53926;DHT22;39836;52.754;6.866;2022-11-14T03:26:10;6.10;79.30
53926;DHT22;39836;52.754;6.866;2022-11-14T03:28:37;6.20;79.30
53926;DHT22;39836;52.754;6.866;2022-11-14T03:31:03;6.20;79.20
53926;DHT22;39836;52.754;6.866;2022-11-14T03:33:31;6.10;79.10
53926;DHT22;39836;52.754;6.866;2022-11-14T03:35:56;6.20;79.10
53926;DHT22;39836;52.754;6.866;2022-11-14T03:38:22;6.20;79.10
53926;DHT22;39836;52.754;6.866;2022-11-14T03:40:49;6.20;79.10
53926;DHT22;39836;52.754;6.866;2022-11-14T03:43:16;6.20;79.00
53926;DHT22;39836;52.754;6.866;2022-11-14T03:45:42;6.10;79.10
53926;DHT22;39836;52.754;6.866;2022-11-14T03:48:08;6.10;79.00
53926;DHT22;39836;52.754;6.866;2022-11-14T03:50:34;6.20;79.20
53926;DHT22;39836;52.754;6.866;2022-11-14T03:52:59;6.20;79.10
53926;DHT22;39836;52.754;6.866;2022-11-14T03:55:25;6.20;79.10
53926;DHT22;39836;52.754;6.866;2022-11-14T03:57:51;6.20;79.10
53926;DHT22;39836;52.754;6.866;2022-11-14T04:00:17;6.20;79.10
53926;DHT22;39836;52.754;6.866;2022-11-14T04:02:43;6.20;79.00
53926;DHT22;39836;52.754;6.866;2022-11-14T04:05:08;6.20;79.00
53926;DHT22;39836;52.754;6.866;2022-11-14T04:07:34;6.20;79.00
53926;DHT22;39836;52.754;6.866;2022-11-14T04:10:00;6.20;79.00
53926;DHT22;39836;52.754;6.866;2022-11-14T04:12:26;6.20;79.00
53926;DHT22;39836;52.754;6.866;2022-11-14T04:14:51;6.20;79.00
53926;DHT22;39836;52.754;6.866;2022-11-14T04:17:17;6.20;79.10
53926;DHT22;39836;52.754;6.866;2022-11-14T04:19:43;6.20;79.30
53926;DHT22;39836;52.754;6.866;2022-11-14T04:22:08;6.20;79.30
53926;DHT22;39836;52.754;6.866;2022-11-14T04:24:34;6.20;79.20
53926;DHT22;39836;52.754;6.866;2022-11-14T04:27:00;6.20;79.20
53926;DHT22;39836;52.754;6.866;2022-11-14T04:29:25;6.10;79.30
53926;DHT22;39836;52.754;6.866;2022-11-14T04:31:51;6.10;79.30
53926;DHT22;39836;52.754;6.866;2022-11-14T04:34:17;6.10;79.30
53926;DHT22;39836;52.754;6.866;2022-11-14T04:36:42;6.20;79.20
53926;DHT22;39836;52.754;6.866;2022-11-14T04:39:08;6.20;79.10
53926;DHT22;39836;52.754;6.866;2022-11-14T04:41:33;6.20;79.10
53926;DHT22;39836;52.754;6.866;2022-11-14T04:43:59;6.10;79.30
53926;DHT22;39836;52.754;6.866;2022-11-14T04:46:25;6.10;79.30
53926;DHT22;39836;52.754;6.866;2022-11-14T04:48:50;6.10;79.30
53926;DHT22;39836;52.754;6.866;2022-11-14T04:51:16;6.10;79.40
53926;DHT22;39836;52.754;6.866;2022-11-14T04:53:42;6.10;79.30
53926;DHT22;39836;52.754;6.866;2022-11-14T04:56:08;6.10;79.40
53926;DHT22;39836;52.754;6.866;2022-11-14T04:58:34;6.10;79.40
53926;DHT22;39836;52.754;6.866;2022-11-14T05:01:09;6.10;79.30
53926;DHT22;39836;52.754;6.866;2022-11-14T05:03:35;6.10;79.50
53926;DHT22;39836;52.754;6.866;2022-11-14T05:06:01;6.10;79.30
53926;DHT22;39836;52.754;6.866;2022-11-14T05:08:27;6.10;79.20
53926;DHT22;39836;52.754;6.866;2022-11-14T05:10:52;6.10;79.20
53926;DHT22;39836;52.754;6.866;2022-11-14T05:13:18;6.00;79.20
53926;DHT22;39836;52.754;6.866;2022-11-14T05:15:44;6.00;79.30
53926;DHT22;39836;52.754;6.866;2022-11-14T05:18:10;6.00;79.30
53926;DHT22;39836;52.754;6.866;2022-11-14T05:20:35;6.00;79.30
53926;DHT22;39836;52.754;6.866;2022-11-14T05:23:01;5.90;79.20
53926;DHT22;39836;52.754;6.866;2022-11-14T05:25:27;5.90;79.20
53926;DHT22;39836;52.754;6.866;2022-11-14T05:27:52;6.00;79.20
53926;DHT22;39836;52.754;6.866;2022-11-14T05:30:18;5.90;79.10
53926;DHT22;39836;52.754;6.866;2022-11-14T05:32:44;5.90;79.20
53926;DHT22;39836;52.754;6.866;2022-11-14T05:35:09;5.80;79.30
53926;DHT22;39836;52.754;6.866;2022-11-14T05:37:35;5.90;79.20
53926;DHT22;39836;52.754;6.866;2022-11-14T05:40:02;5.90;79.20
53926;DHT22;39836;52.754;6.866;2022-11-14T05:42:28;5.90;79.20
53926;DHT22;39836;52.754;6.866;2022-11-14T05:44:53;5.90;79.20
53926;DHT22;39836;52.754;6.866;2022-11-14T05:47:19;5.90;79.20
53926;DHT22;39836;52.754;6.866;2022-11-14T05:49:45;5.90;79.10
53926;DHT22;39836;52.754;6.866;2022-11-14T05:52:11;5.90;79.10
53926;DHT22;39836;52.754;6.866;2022-11-14T05:54:37;5.90;79.20
53926;DHT22;39836;52.754;6.866;2022-11-14T05:57:03;5.90;79.10
53926;DHT22;39836;52.754;6.866;2022-11-14T05:59:28;5.90;79.20
53926;DHT22;39836;52.754;6.866;2022-11-14T06:01:54;5.90;79.10
53926;DHT22;39836;52.754;6.866;2022-11-14T06:04:20;5.90;79.10
53926;DHT22;39836;52.754;6.866;2022-11-14T06:06:45;5.90;79.00
53926;DHT22;39836;52.754;6.866;2022-11-14T06:09:11;5.80;79.10
53926;DHT22;39836;52.754;6.866;2022-11-14T06:11:37;5.80;79.10
53926;DHT22;39836;52.754;6.866;2022-11-14T06:14:03;5.80;79.10
53926;DHT22;39836;52.754;6.866;2022-11-14T06:16:28;5.80;79.00
53926;DHT22;39836;52.754;6.866;2022-11-14T06:18:55;5.80;79.00
53926;DHT22;39836;52.754;6.866;2022-11-14T06:21:22;5.70;79.10
53926;DHT22;39836;52.754;6.866;2022-11-14T06:23:48;5.60;79.00
53926;DHT22;39836;52.754;6.866;2022-11-14T06:26:21;5.60;79.00
53926;DHT22;39836;52.754;6.866;2022-11-14T06:28:48;5.50;79.10
53926;DHT22;39836;52.754;6.866;2022-11-14T06:31:15;5.70;79.10
53926;DHT22;39836;52.754;6.866;2022-11-14T06:33:41;5.50;79.10
53926;DHT22;39836;52.754;6.866;2022-11-14T06:36:08;5.50;79.10
53926;DHT22;39836;52.754;6.866;2022-11-14T06:38:35;5.40;79.10
53926;DHT22;39836;52.754;6.866;2022-11-14T06:41:10;5.40;79.10
53926;DHT22;39836;52.754;6.866;2022-11-14T06:43:38;5.30;79.00
53926;DHT22;39836;52.754;6.866;2022-11-14T06:46:05;5.30;79.00
53926;DHT22;39836;52.754;6.866;2022-11-14T06:48:31;5.30;79.00
53926;DHT22;39836;52.754;6.866;2022-11-14T06:50:58;5.30;79.00
53926;DHT22;39836;52.754;6.866;2022-11-14T06:53:25;5.40;78.90
53926;DHT22;39836;52.754;6.866;2022-11-14T06:56:07;5.40;79.00
53926;DHT22;39836;52.754;6.866;2022-11-14T06:58:35;5.30;78.90
53926;DHT22;39836;52.754;6.866;2022-11-14T07:01:09;5.40;79.00
53926;DHT22;39836;52.754;6.866;2022-11-14T07:03:36;5.30;78.90
53926;DHT22;39836;52.754;6.866;2022-11-14T07:06:03;5.30;78.90
53926;DHT22;39836;52.754;6.866;2022-11-14T07:08:29;5.30;79.00
53926;DHT22;39836;52.754;6.866;2022-11-14T07:11:03;5.20;79.00
53926;DHT22;39836;52.754;6.866;2022-11-14T07:13:30;5.30;79.00
53926;DHT22;39836;52.754;6.866;2022-11-14T07:15:56;5.30;79.00
53926;DHT22;39836;52.754;6.866;2022-11-14T07:18:22;5.30;79.00
53926;DHT22;39836;52.754;6.866;2022-11-14T07:20:47;5.30;79.00
53926;DHT22;39836;52.754;6.866;2022-11-14T07:23:13;5.30;79.10
53926;DHT22;39836;52.754;6.866;2022-11-14T07:25:40;5.40;79.10
53926;DHT22;39836;52.754;6.866;2022-11-14T07:28:05;5.40;79.20
53926;DHT22;39836;52.754;6.866;2022-11-14T07:30:32;5.40;79.10
53926;DHT22;39836;52.754;6.866;2022-11-14T07:32:59;5.40;79.10
53926;DHT22;39836;52.754;6.866;2022-11-14T07:35:25;5.50;79.10
53926;DHT22;39836;52.754;6.866;2022-11-14T07:37:51;5.50;79.30
53926;DHT22;39836;52.754;6.866;2022-11-14T07:40:17;5.50;79.30
53926;DHT22;39836;52.754;6.866;2022-11-14T07:42:43;5.50;79.20
53926;DHT22;39836;52.754;6.866;2022-11-14T07:45:09;5.50;79.20
53926;DHT22;39836;52.754;6.866;2022-11-14T07:47:35;5.60;79.20
53926;DHT22;39836;52.754;6.866;2022-11-14T07:50:01;5.50;79.10
53926;DHT22;39836;52.754;6.866;2022-11-14T07:52:27;5.50;79.10
53926;DHT22;39836;52.754;6.866;2022-11-14T07:54:55;5.50;79.10
53926;DHT22;39836;52.754;6.866;2022-11-14T07:57:21;5.60;79.20
53926;DHT22;39836;52.754;6.866;2022-11-14T07:59:47;5.60;79.10
53926;DHT22;39836;52.754;6.866;2022-11-14T08:02:13;5.60;79.10
53926;DHT22;39836;52.754;6.866;2022-11-14T08:04:42;5.60;79.10
53926;DHT22;39836;52.754;6.866;2022-11-14T08:07:08;5.70;79.10
53926;DHT22;39836;52.754;6.866;2022-11-14T08:09:34;5.70;79.10
53926;DHT22;39836;52.754;6.866;2022-11-14T08:12:00;5.70;79.10
53926;DHT22;39836;52.754;6.866;2022-11-14T08:14:26;5.80;79.10
53926;DHT22;39836;52.754;6.866;2022-11-14T08:16:52;5.80;79.10
53926;DHT22;39836;52.754;6.866;2022-11-14T08:19:17;5.90;79.00
53926;DHT22;39836;52.754;6.866;2022-11-14T08:21:43;5.80;79.00
53926;DHT22;39836;52.754;6.866;2022-11-14T08:24:09;5.90;78.90
53926;DHT22;39836;52.754;6.866;2022-11-14T08:26:35;5.90;78.90
53926;DHT22;39836;52.754;6.866;2022-11-14T08:29:00;6.00;78.90
53926;DHT22;39836;52.754;6.866;2022-11-14T08:31:26;5.90;78.90
53926;DHT22;39836;52.754;6.866;2022-11-14T08:33:52;6.00;78.90
53926;DHT22;39836;52.754;6.866;2022-11-14T08:36:18;6.00;78.90
53926;DHT22;39836;52.754;6.866;2022-11-14T08:38:44;6.00;78.80
53926;DHT22;39836;52.754;6.866;2022-11-14T08:41:10;6.00;78.80
53926;DHT22;39836;52.754;6.866;2022-11-14T08:43:36;6.10;78.80
53926;DHT22;39836;52.754;6.866;2022-11-14T08:46:03;6.10;78.70
53926;DHT22;39836;52.754;6.866;2022-11-14T08:48:30;6.10;78.70
53926;DHT22;39836;52.754;6.866;2022-11-14T08:50:57;6.20;78.70
53926;DHT22;39836;52.754;6.866;2022-11-14T08:53:23;6.20;78.70
53926;DHT22;39836;52.754;6.866;2022-11-14T08:55:48;6.30;78.60
53926;DHT22;39836;52.754;6.866;2022-11-14T08:58:14;6.30;78.60
53926;DHT22;39836;52.754;6.866;2022-11-14T09:00:40;6.40;78.60
53926;DHT22;39836;52.754;6.866;2022-11-14T09:03:10;6.40;78.50
53926;DHT22;39836;52.754;6.866;2022-11-14T09:05:40;6.40;78.50
53926;DHT22;39836;52.754;6.866;2022-11-14T09:08:06;6.50;78.60
53926;DHT22;39836;52.754;6.866;2022-11-14T09:10:33;6.50;78.50
53926;DHT22;39836;52.754;6.866;2022-11-14T09:13:00;6.50;78.30
53926;DHT22;39836;52.754;6.866;2022-11-14T09:15:27;6.60;78.40
53926;DHT22;39836;52.754;6.866;2022-11-14T09:17:54;6.70;78.40
53926;DHT22;39836;52.754;6.866;2022-11-14T09:20:22;6.70;78.40
53926;DHT22;39836;52.754;6.866;2022-11-14T09:22:49;6.80;78.40
53926;DHT22;39836;52.754;6.866;2022-11-14T09:25:20;7.00;78.50
53926;DHT22;39836;52.754;6.866;2022-11-14T09:27:46;7.10;78.40
53926;DHT22;39836;52.754;6.866;2022-11-14T09:30:13;7.10;78.10
53926;DHT22;39836;52.754;6.866;2022-11-14T09:32:38;7.10;77.60
53926;DHT22;39836;52.754;6.866;2022-11-14T09:35:05;7.10;77.80
53926;DHT22;39836;52.754;6.866;2022-11-14T09:37:30;7.20;77.90
53926;DHT22;39836;52.754;6.866;2022-11-14T09:39:56;7.20;77.80
53926;DHT22;39836;52.754;6.866;2022-11-14T09:45:20;7.20;77.50
53926;DHT22;39836;52.754;6.866;2022-11-14T09:47:55;7.20;77.70
53926;DHT22;39836;52.754;6.866;2022-11-14T09:50:29;7.20;77.20
53926;DHT22;39836;52.754;6.866;2022-11-14T09:53:00;7.20;77.60
53926;DHT22;39836;52.754;6.866;2022-11-14T09:55:32;7.30;77.70
53926;DHT22;39836;52.754;6.866;2022-11-14T09:58:00;7.40;77.60
53926;DHT22;39836;52.754;6.866;2022-11-14T10:00:34;7.30;77.50
53926;DHT22;39836;52.754;6.866;2022-11-14T10:03:09;7.40;77.70
53926;DHT22;39836;52.754;6.866;2022-11-14T10:11:12;7.40;77.10
53926;DHT22;39836;52.754;6.866;2022-11-14T10:24:41;7.30;77.20
53926;DHT22;39836;52.754;6.866;2022-11-14T10:27:19;7.30;77.40
53926;DHT22;39836;52.754;6.866;2022-11-14T10:33:12;7.70;77.00
53926;DHT22;39836;52.754;6.866;2022-11-14T10:35:47;7.60;76.70
53926;DHT22;39836;52.754;6.866;2022-11-14T10:38:31;7.70;77.10
53926;DHT22;39836;52.754;6.866;2022-11-14T10:41:04;7.80;77.30
53926;DHT22;39836;52.754;6.866;2022-11-14T10:43:47;7.70;76.90
53926;DHT22;39836;52.754;6.866;2022-11-14T10:46:25;7.80;76.90
53926;DHT22;39836;52.754;6.866;2022-11-14T10:48:51;7.80;76.80
53926;DHT22;39836;52.754;6.866;2022-11-14T10:51:34;7.90;77.10
53926;DHT22;39836;52.754;6.866;2022-11-14T10:54:18;8.00;77.20
53926;DHT22;39836;52.754;6.866;2022-11-14T10:56:47;8.20;76.70
53926;DHT22;39836;52.754;6.866;2022-11-14T10:59:13;8.20;77.00
53926;DHT22;39836;52.754;6.866;2022-11-14T11:01:52;8.30;76.70
53926;DHT22;39836;52.754;6.866;2022-11-14T11:06:50;8.70;76.10
53926;DHT22;39836;52.754;6.866;2022-11-14T11:09:25;8.80;75.80
53926;DHT22;39836;52.754;6.866;2022-11-14T11:12:18;8.90;76.00
53926;DHT22;39836;52.754;6.866;2022-11-14T11:14:46;8.90;76.00
53926;DHT22;39836;52.754;6.866;2022-11-14T11:19:39;8.90;75.80
53926;DHT22;39836;52.754;6.866;2022-11-14T11:22:24;9.00;75.70
53926;DHT22;39836;52.754;6.866;2022-11-14T11:24:50;8.90;75.70
53926;DHT22;39836;52.754;6.866;2022-11-14T11:32:39;9.00;75.70
53926;DHT22;39836;52.754;6.866;2022-11-14T11:35:14;9.10;75.90
53926;DHT22;39836;52.754;6.866;2022-11-14T11:37:44;9.20;76.00
53926;DHT22;39836;52.754;6.866;2022-11-14T11:40:30;9.20;75.40
53926;DHT22;39836;52.754;6.866;2022-11-14T11:45:46;9.20;75.70
53926;DHT22;39836;52.754;6.866;2022-11-14T11:48:17;9.30;75.80
53926;DHT22;39836;52.754;6.866;2022-11-14T11:50:43;9.30;75.90
53926;DHT22;39836;52.754;6.866;2022-11-14T11:53:22;9.40;75.70
53926;DHT22;39836;52.754;6.866;2022-11-14T11:55:52;9.50;76.00
53926;DHT22;39836;52.754;6.866;2022-11-14T11:58:30;9.60;75.20
53926;DHT22;39836;52.754;6.866;2022-11-14T12:00:57;9.60;75.10
53926;DHT22;39836;52.754;6.866;2022-11-14T12:03:24;9.50;75.20
53926;DHT22;39836;52.754;6.866;2022-11-14T12:11:16;9.80;75.60
53926;DHT22;39836;52.754;6.866;2022-11-14T12:16:34;10.10;74.70
53926;DHT22;39836;52.754;6.866;2022-11-14T12:19:26;10.30;74.70
53926;DHT22;39836;52.754;6.866;2022-11-14T12:32:31;11.10;72.90
53926;DHT22;39836;52.754;6.866;2022-11-14T12:34:59;11.10;72.50
53926;DHT22;39836;52.754;6.866;2022-11-14T12:37:35;11.00;72.70
53926;DHT22;39836;52.754;6.866;2022-11-14T12:40:04;11.10;72.70
53926;DHT22;39836;52.754;6.866;2022-11-14T12:42:31;10.80;72.80
53926;DHT22;39836;52.754;6.866;2022-11-14T12:44:57;10.80;72.80
53926;DHT22;39836;52.754;6.866;2022-11-14T12:47:27;10.90;73.40
53926;DHT22;39836;52.754;6.866;2022-11-14T12:58:05;11.80;71.70
53926;DHT22;39836;52.754;6.866;2022-11-14T13:00:39;11.90;71.80
53926;DHT22;39836;52.754;6.866;2022-11-14T13:06:21;11.50;71.70
53926;DHT22;39836;52.754;6.866;2022-11-14T13:11:51;11.70;72.10
53926;DHT22;39836;52.754;6.866;2022-11-14T13:14:49;11.70;72.40
53926;DHT22;39836;52.754;6.866;2022-11-14T13:17:34;11.70;71.80
53926;DHT22;39836;52.754;6.866;2022-11-14T13:20:33;12.20;71.80
53926;DHT22;39836;52.754;6.866;2022-11-14T13:33:45;11.50;72.10
53926;DHT22;39836;52.754;6.866;2022-11-14T13:50:16;11.40;71.20
53926;DHT22;39836;52.754;6.866;2022-11-14T13:52:45;11.30;71.80
53926;DHT22;39836;52.754;6.866;2022-11-14T13:58:16;11.50;71.30
53926;DHT22;39836;52.754;6.866;2022-11-14T14:06:41;11.60;71.60
53926;DHT22;39836;52.754;6.866;2022-11-14T14:09:19;11.20;71.80
53926;DHT22;39836;52.754;6.866;2022-11-14T14:20:43;10.40;72.80
53926;DHT22;39836;52.754;6.866;2022-11-14T14:31:21;9.80;73.70
53926;DHT22;39836;52.754;6.866;2022-11-14T14:33:51;9.70;73.90
53926;DHT22;39836;52.754;6.866;2022-11-14T14:36:21;9.60;74.50
53926;DHT22;39836;52.754;6.866;2022-11-14T14:38:48;9.60;74.30
53926;DHT22;39836;52.754;6.866;2022-11-14T14:41:16;9.50;74.20
53926;DHT22;39836;52.754;6.866;2022-11-14T14:43:49;9.50;74.30
53926;DHT22;39836;52.754;6.866;2022-11-14T14:46:24;9.60;74.50
53926;DHT22;39836;52.754;6.866;2022-11-14T14:48:50;9.40;74.70
53926;DHT22;39836;52.754;6.866;2022-11-14T14:51:28;9.40;74.60
53926;DHT22;39836;52.754;6.866;2022-11-14T14:53:54;9.30;74.80
53926;DHT22;39836;52.754;6.866;2022-11-14T14:56:22;9.30;74.70
53926;DHT22;39836;52.754;6.866;2022-11-14T14:58:49;9.30;74.70
53926;DHT22;39836;52.754;6.866;2022-11-14T15:01:17;9.20;74.80
53926;DHT22;39836;52.754;6.866;2022-11-14T15:04:00;9.20;74.80
53926;DHT22;39836;52.754;6.866;2022-11-14T15:08:59;9.00;75.10
53926;DHT22;39836;52.754;6.866;2022-11-14T15:11:26;8.70;75.10
53926;DHT22;39836;52.754;6.866;2022-11-14T15:13:56;8.80;75.20
53926;DHT22;39836;52.754;6.866;2022-11-14T15:16:23;8.80;75.20
53926;DHT22;39836;52.754;6.866;2022-11-14T15:18:52;8.70;75.50
53926;DHT22;39836;52.754;6.866;2022-11-14T15:21:29;8.60;75.40
53926;DHT22;39836;52.754;6.866;2022-11-14T15:26:23;8.40;75.80
53926;DHT22;39836;52.754;6.866;2022-11-14T15:28:49;8.50;75.70
53926;DHT22;39836;52.754;6.866;2022-11-14T15:31:19;8.50;75.80
53926;DHT22;39836;52.754;6.866;2022-11-14T15:34:01;8.60;75.80
53926;DHT22;39836;52.754;6.866;2022-11-14T15:36:27;8.60;75.60
53926;DHT22;39836;52.754;6.866;2022-11-14T15:39:30;8.60;75.60
53926;DHT22;39836;52.754;6.866;2022-11-14T15:41:49;8.70;75.60
53926;DHT22;39836;52.754;6.866;2022-11-14T15:44:30;8.60;75.90
53926;DHT22;39836;52.754;6.866;2022-11-14T15:46:56;8.70;76.10
53926;DHT22;39836;52.754;6.866;2022-11-14T15:49:24;8.70;76.10
53926;DHT22;39836;52.754;6.866;2022-11-14T15:51:54;8.70;76.00
53926;DHT22;39836;52.754;6.866;2022-11-14T15:54:26;8.80;76.00
53926;DHT22;39836;52.754;6.866;2022-11-14T15:56:54;8.80;76.00
53926;DHT22;39836;52.754;6.866;2022-11-14T15:59:20;8.80;75.90
53926;DHT22;39836;52.754;6.866;2022-11-14T16:01:48;8.80;76.10
53926;DHT22;39836;52.754;6.866;2022-11-14T16:04:20;8.90;76.10
53926;DHT22;39836;52.754;6.866;2022-11-14T16:06:46;8.90;76.00
53926;DHT22;39836;52.754;6.866;2022-11-14T16:09:19;8.90;75.90
53926;DHT22;39836;52.754;6.866;2022-11-14T16:11:45;9.00;75.90
53926;DHT22;39836;52.754;6.866;2022-11-14T16:14:11;9.00;75.90
53926;DHT22;39836;52.754;6.866;2022-11-14T16:16:37;9.00;75.90
53926;DHT22;39836;52.754;6.866;2022-11-14T16:19:04;9.00;75.80
53926;DHT22;39836;52.754;6.866;2022-11-14T16:21:33;8.90;75.70
53926;DHT22;39836;52.754;6.866;2022-11-14T16:23:59;8.80;75.70
53926;DHT22;39836;52.754;6.866;2022-11-14T16:26:25;8.70;75.70
53926;DHT22;39836;52.754;6.866;2022-11-14T16:28:51;8.60;75.60
53926;DHT22;39836;52.754;6.866;2022-11-14T16:31:17;8.60;75.70
53926;DHT22;39836;52.754;6.866;2022-11-14T16:33:43;8.60;75.70
53926;DHT22;39836;52.754;6.866;2022-11-14T16:36:10;8.50;75.80
53926;DHT22;39836;52.754;6.866;2022-11-14T16:38:37;8.50;75.90
53926;DHT22;39836;52.754;6.866;2022-11-14T16:41:08;8.50;75.90
53926;DHT22;39836;52.754;6.866;2022-11-14T16:43:36;8.50;76.00
53926;DHT22;39836;52.754;6.866;2022-11-14T16:46:03;8.50;76.10
53926;DHT22;39836;52.754;6.866;2022-11-14T16:48:29;8.60;76.20
53926;DHT22;39836;52.754;6.866;2022-11-14T16:50:58;8.60;76.20
53926;DHT22;39836;52.754;6.866;2022-11-14T16:53:24;8.60;76.20
53926;DHT22;39836;52.754;6.866;2022-11-14T16:55:49;8.60;76.20
53926;DHT22;39836;52.754;6.866;2022-11-14T16:58:15;8.60;76.20
53926;DHT22;39836;52.754;6.866;2022-11-14T17:00:44;8.60;76.30
53926;DHT22;39836;52.754;6.866;2022-11-14T17:03:09;8.50;76.20
53926;DHT22;39836;52.754;6.866;2022-11-14T17:05:46;8.50;76.20
53926;DHT22;39836;52.754;6.866;2022-11-14T17:08:12;8.40;76.20
53926;DHT22;39836;52.754;6.866;2022-11-14T17:10:41;8.30;76.20
53926;DHT22;39836;52.754;6.866;2022-11-14T17:13:07;8.30;76.20
53926;DHT22;39836;52.754;6.866;2022-11-14T17:15:33;8.20;76.30
53926;DHT22;39836;52.754;6.866;2022-11-14T17:18:00;8.10;76.30
53926;DHT22;39836;52.754;6.866;2022-11-14T17:20:25;8.10;76.40
53926;DHT22;39836;52.754;6.866;2022-11-14T17:22:51;8.10;76.50
53926;DHT22;39836;52.754;6.866;2022-11-14T17:25:17;8.10;76.60
53926;DHT22;39836;52.754;6.866;2022-11-14T17:27:42;8.10;76.60
53926;DHT22;39836;52.754;6.866;2022-11-14T17:30:11;8.10;76.80
53926;DHT22;39836;52.754;6.866;2022-11-14T17:32:37;8.10;76.70
53926;DHT22;39836;52.754;6.866;2022-11-14T17:35:03;8.20;76.80
53926;DHT22;39836;52.754;6.866;2022-11-14T17:37:29;8.20;76.70
53926;DHT22;39836;52.754;6.866;2022-11-14T17:39:55;8.20;76.80
53926;DHT22;39836;52.754;6.866;2022-11-14T17:42:21;8.20;76.80
53926;DHT22;39836;52.754;6.866;2022-11-14T17:44:46;8.20;76.70
53926;DHT22;39836;52.754;6.866;2022-11-14T17:47:12;8.30;76.80
53926;DHT22;39836;52.754;6.866;2022-11-14T17:49:38;8.30;76.70
53926;DHT22;39836;52.754;6.866;2022-11-14T17:52:03;8.30;76.70
53926;DHT22;39836;52.754;6.866;2022-11-14T17:54:29;8.30;76.70
53926;DHT22;39836;52.754;6.866;2022-11-14T17:56:54;8.30;76.70
53926;DHT22;39836;52.754;6.866;2022-11-14T17:59:21;8.30;76.60